createdAt,value
2018-12-28T00:01:01.812Z,4.90
2018-12-28T00:03:30.635Z,4.90
2018-12-28T00:05:59.563Z,4.90
2018-12-28T00:08:28.377Z,4.90
2018-12-28T00:10:57.184Z,5.00
2018-12-28T00:13:25.981Z,5.00
2018-12-28T00:15:54.813Z,5.00
2018-12-28T00:18:23.618Z,5.00
2018-12-28T00:20:52.413Z,5.00
2018-12-28T00:23:21.205Z,5.00
2018-12-28T00:25:50.030Z,5.00
2018-12-28T00:28:18.845Z,5.00
2018-12-28T00:30:47.687Z,4.90
2018-12-28T00:33:16.492Z,4.90
2018-12-28T00:35:45.311Z,4.90
2018-12-28T00:38:14.098Z,4.90
2018-12-28T00:40:42.910Z,4.80
2018-12-28T00:43:11.714Z,4.80
2018-12-28T00:45:40.545Z,4.90
2018-12-28T00:48:09.395Z,4.90
2018-12-28T00:50:38.221Z,4.80
2018-12-28T00:53:07.014Z,4.80
2018-12-28T00:55:35.871Z,4.80
2018-12-28T00:58:04.784Z,4.90
2018-12-28T01:00:33.603Z,4.90
2018-12-28T01:03:02.402Z,4.90
2018-12-28T01:05:31.213Z,4.90
2018-12-28T01:08:00.018Z,5.00
2018-12-28T01:10:28.855Z,5.00
2018-12-28T01:12:57.651Z,5.00
2018-12-28T01:15:26.483Z,5.00
2018-12-28T01:17:55.291Z,5.00
2018-12-28T01:20:24.103Z,5.00
2018-12-28T01:22:52.999Z,5.00
2018-12-28T01:25:21.791Z,5.00
2018-12-28T01:27:50.601Z,5.00
2018-12-28T01:30:19.402Z,5.00
2018-12-28T01:32:48.217Z,5.00
2018-12-28T01:35:17.034Z,5.00
2018-12-28T01:37:45.906Z,5.10
2018-12-28T01:40:14.712Z,5.10
2018-12-28T01:42:43.507Z,5.00
2018-12-28T01:45:12.404Z,5.00
2018-12-28T01:47:41.203Z,5.10
2018-12-28T01:50:10.022Z,5.10
2018-12-28T01:52:38.819Z,5.10
2018-12-28T01:55:07.706Z,5.10
2018-12-28T01:57:36.528Z,5.10
2018-12-28T02:00:08.182Z,5.20
2018-12-28T02:02:36.986Z,5.10
2018-12-28T02:05:05.997Z,5.20
2018-12-28T02:07:34.784Z,5.10
2018-12-28T02:10:03.754Z,5.10
2018-12-28T02:12:32.578Z,5.10
2018-12-28T02:15:01.396Z,5.10
2018-12-28T02:17:30.208Z,5.20
2018-12-28T02:19:59.844Z,5.20
2018-12-28T02:22:28.754Z,5.10
2018-12-28T02:24:57.566Z,5.20
2018-12-28T02:27:26.386Z,5.20
2018-12-28T02:29:55.210Z,5.20
2018-12-28T02:32:24.083Z,5.20
2018-12-28T02:34:52.891Z,5.20
2018-12-28T02:37:21.802Z,5.20
2018-12-28T02:39:50.678Z,5.20
2018-12-28T02:42:19.562Z,5.20
2018-12-28T02:44:48.414Z,5.20
2018-12-28T02:47:17.235Z,5.20
2018-12-28T02:49:46.051Z,5.20
2018-12-28T02:52:14.874Z,5.10
2018-12-28T02:54:43.680Z,5.10
2018-12-28T02:57:12.505Z,5.10
2018-12-28T02:59:41.303Z,5.10
2018-12-28T03:02:10.134Z,5.10
2018-12-28T03:04:39.019Z,5.10
2018-12-28T03:07:07.962Z,5.10
2018-12-28T03:09:44.319Z,5.00
2018-12-28T03:12:07.421Z,5.00
2018-12-28T03:14:36.238Z,5.00
2018-12-28T03:17:05.189Z,5.00
2018-12-28T03:19:34.020Z,5.00
2018-12-28T03:22:02.891Z,5.00
2018-12-28T03:24:31.721Z,5.00
2018-12-28T03:27:00.522Z,5.00
2018-12-28T03:29:29.335Z,5.00
2018-12-28T03:31:58.137Z,5.00
2018-12-28T03:34:26.951Z,5.00
2018-12-28T03:36:55.760Z,5.00
2018-12-28T03:39:24.572Z,5.00
2018-12-28T03:41:53.464Z,4.90
2018-12-28T03:44:22.335Z,4.90
2018-12-28T03:46:51.148Z,4.90
2018-12-28T03:49:20.028Z,4.90
2018-12-28T03:51:48.847Z,4.90
2018-12-28T03:54:17.679Z,4.90
2018-12-28T03:56:46.511Z,4.90
2018-12-28T03:59:15.402Z,4.80
2018-12-28T04:01:44.222Z,4.80
2018-12-28T04:04:13.044Z,4.80
2018-12-28T04:06:41.841Z,4.90
2018-12-28T04:09:10.771Z,4.90
2018-12-28T04:11:39.588Z,4.80
2018-12-28T04:14:08.542Z,4.80
2018-12-28T04:16:37.346Z,4.80
2018-12-28T04:19:06.167Z,4.80
2018-12-28T04:21:34.954Z,4.80
2018-12-28T04:24:03.778Z,4.80
2018-12-28T04:26:32.582Z,4.80
2018-12-28T04:29:01.482Z,4.80
2018-12-28T04:31:30.283Z,4.80
2018-12-28T04:33:59.110Z,4.80
2018-12-28T04:36:27.915Z,4.80
2018-12-28T04:38:56.731Z,4.90
2018-12-28T04:41:25.543Z,4.90
2018-12-28T04:43:54.362Z,4.90
2018-12-28T04:46:23.173Z,4.90
2018-12-28T04:48:52.079Z,4.90
2018-12-28T04:51:21.414Z,4.90
2018-12-28T04:53:50.710Z,4.90
2018-12-28T04:56:19.946Z,4.90
2018-12-28T04:58:50.730Z,4.90
2018-12-28T05:01:46.790Z,4.90
2018-12-28T05:04:51.478Z,4.90
2018-12-28T05:07:47.912Z,4.90
2018-12-28T05:10:42.769Z,4.90
2018-12-28T05:13:48.882Z,4.90
2018-12-28T05:16:35.235Z,5.00
2018-12-28T05:19:19.441Z,4.90
2018-12-28T05:22:33.185Z,5.00
2018-12-28T05:25:18.865Z,5.00
2018-12-28T05:28:18.691Z,5.00
2018-12-28T05:30:53.719Z,5.00
2018-12-28T05:33:22.498Z,5.10
2018-12-28T05:35:51.453Z,5.10
2018-12-28T05:38:20.343Z,5.10
2018-12-28T05:40:49.228Z,5.00
2018-12-28T05:43:18.153Z,5.00
2018-12-28T05:45:47.030Z,5.10
2018-12-28T05:48:15.827Z,5.10
2018-12-28T05:50:44.772Z,5.10
2018-12-28T05:53:13.690Z,5.10
2018-12-28T05:55:42.492Z,5.10
2018-12-28T05:58:11.386Z,5.10
2018-12-28T06:00:40.270Z,5.10
2018-12-28T06:03:09.164Z,5.10
2018-12-28T06:05:38.111Z,5.10
2018-12-28T06:08:07.092Z,5.10
2018-12-28T06:10:35.990Z,5.10
2018-12-28T06:13:04.954Z,5.10
2018-12-28T06:15:33.896Z,5.10
2018-12-28T06:18:02.896Z,5.20
2018-12-28T06:20:31.794Z,5.20
2018-12-28T06:23:00.746Z,5.20
2018-12-28T06:25:29.630Z,5.10
2018-12-28T06:27:58.622Z,5.10
2018-12-28T06:30:27.519Z,5.10
2018-12-28T06:32:56.402Z,5.10
2018-12-28T06:35:25.383Z,5.10
2018-12-28T06:37:54.198Z,5.20
2018-12-28T06:40:23.111Z,5.20
2018-12-28T06:42:51.994Z,5.10
2018-12-28T06:45:20.992Z,5.20
2018-12-28T06:47:49.958Z,5.10
2018-12-28T06:50:18.934Z,5.20
2018-12-28T06:53:35.112Z,5.20
2018-12-28T06:56:56.427Z,5.10
2018-12-28T07:00:18.475Z,5.10
2018-12-28T07:03:39.743Z,5.10
2018-12-28T07:06:43.580Z,5.10
2018-12-28T07:09:54.174Z,5.10
2018-12-28T07:13:06.245Z,5.10
2018-12-28T07:16:21.936Z,5.00
2018-12-28T07:19:47.294Z,5.10
2018-12-28T07:22:52.167Z,5.10
2018-12-28T07:26:16.191Z,5.10
2018-12-28T07:29:25.726Z,5.10
2018-12-28T07:32:39.392Z,5.10
2018-12-28T07:35:41.026Z,5.10
2018-12-28T07:38:38.534Z,5.10
2018-12-28T07:42:16.015Z,5.00
2018-12-28T07:45:31.792Z,5.00
2018-12-28T07:48:16.923Z,5.00
2018-12-28T07:51:17.898Z,5.00
2018-12-28T07:54:24.070Z,5.10
2018-12-28T07:57:02.892Z,5.10
2018-12-28T08:00:14.567Z,5.10
2018-12-28T08:03:14.015Z,5.10
2018-12-28T08:06:17.087Z,5.10
2018-12-28T08:09:41.428Z,5.10
2018-12-28T08:12:33.821Z,5.10
2018-12-28T08:15:41.099Z,5.10
2018-12-28T08:19:03.763Z,5.10
2018-12-28T08:22:09.567Z,5.10
2018-12-28T08:25:05.372Z,5.10
2018-12-28T08:28:21.259Z,5.10
2018-12-28T08:31:20.215Z,5.10
2018-12-28T08:34:44.864Z,5.20
2018-12-28T08:37:59.758Z,5.10
2018-12-28T08:41:09.572Z,5.10
2018-12-28T08:43:58.758Z,5.10
2018-12-28T08:47:39.291Z,5.10
2018-12-28T08:50:36.154Z,5.10
2018-12-28T08:53:50.348Z,5.10
2018-12-28T08:56:54.279Z,5.10
2018-12-28T09:00:13.204Z,5.20
2018-12-28T09:03:19.243Z,5.10
2018-12-28T09:06:33.194Z,5.10
2018-12-28T09:09:15.836Z,5.20
2018-12-28T09:12:06.755Z,5.20
2018-12-28T09:15:09.506Z,5.10
2018-12-28T09:18:21.819Z,5.10
2018-12-28T09:21:53.420Z,5.10
2018-12-28T09:24:51.000Z,5.10
2018-12-28T09:27:44.780Z,5.00
2018-12-28T09:30:34.062Z,5.00
2018-12-28T09:33:39.394Z,5.00
2018-12-28T09:36:31.168Z,5.00
2018-12-28T09:39:36.231Z,5.00
2018-12-28T09:42:39.002Z,5.00
2018-12-28T09:45:57.538Z,5.10
2018-12-28T09:48:48.732Z,5.00
2018-12-28T09:51:42.531Z,5.00
2018-12-28T09:54:21.169Z,5.00
2018-12-28T09:57:36.640Z,5.10
2018-12-28T10:00:40.292Z,5.00
2018-12-28T10:03:49.111Z,5.00
2018-12-28T10:06:46.193Z,5.00
2018-12-28T10:09:44.608Z,5.10
2018-12-28T10:12:31.690Z,5.10
2018-12-28T10:15:13.095Z,5.20
2018-12-28T10:17:43.551Z,5.20
2018-12-28T10:20:12.386Z,5.20
2018-12-28T10:22:41.194Z,5.20
2018-12-28T10:25:10.052Z,5.20
2018-12-28T10:27:38.870Z,5.20
2018-12-28T10:30:07.787Z,5.30
2018-12-28T10:32:36.611Z,5.30
2018-12-28T10:35:05.520Z,5.30
2018-12-28T10:37:34.321Z,5.30
2018-12-28T10:40:03.240Z,5.30
2018-12-28T10:42:32.074Z,5.40
2018-12-28T10:45:00.890Z,5.30
2018-12-28T10:47:29.721Z,5.30
2018-12-28T10:49:58.533Z,5.30
2018-12-28T10:52:27.362Z,5.30
2018-12-28T10:54:59.269Z,5.30
2018-12-28T10:57:28.087Z,5.40
2018-12-28T10:59:56.892Z,5.40
2018-12-28T11:02:25.775Z,5.40
2018-12-28T11:04:54.592Z,5.30
2018-12-28T11:07:23.427Z,5.20
2018-12-28T11:09:52.218Z,5.20
2018-12-28T11:12:21.051Z,5.20
2018-12-28T11:14:49.863Z,5.20
2018-12-28T11:17:18.683Z,5.20
2018-12-28T11:19:47.502Z,5.20
2018-12-28T11:22:16.393Z,5.20
2018-12-28T11:24:45.199Z,5.20
2018-12-28T11:27:14.003Z,5.20
2018-12-28T11:29:42.830Z,5.20
2018-12-28T11:32:11.617Z,5.20
2018-12-28T11:34:40.461Z,5.20
2018-12-28T11:37:09.262Z,5.20
2018-12-28T11:39:38.090Z,5.30
2018-12-28T11:42:06.895Z,5.30
2018-12-28T11:44:35.719Z,5.30
2018-12-28T11:47:04.607Z,5.30
2018-12-28T11:49:33.450Z,5.30
2018-12-28T11:52:02.243Z,5.30
2018-12-28T11:54:31.066Z,5.30
2018-12-28T11:56:59.864Z,5.40
2018-12-28T11:59:28.694Z,5.30
2018-12-28T12:01:57.503Z,5.30
2018-12-28T12:04:26.399Z,5.30
2018-12-28T12:06:55.211Z,5.30
2018-12-28T12:09:24.039Z,5.30
2018-12-28T12:11:52.949Z,5.30
2018-12-28T12:14:21.770Z,5.20
2018-12-28T12:16:50.608Z,5.20
2018-12-28T12:19:19.422Z,5.20
2018-12-28T12:21:48.239Z,5.30
2018-12-28T12:24:17.070Z,5.30
2018-12-28T12:26:45.899Z,5.20
2018-12-28T12:29:14.694Z,5.20
2018-12-28T12:31:43.519Z,5.20
2018-12-28T12:34:12.326Z,5.20
2018-12-28T12:36:41.146Z,5.30
2018-12-28T12:39:10.026Z,5.30
2018-12-28T12:41:39.022Z,5.20
2018-12-28T12:44:07.821Z,5.20
2018-12-28T12:46:36.648Z,5.20
2018-12-28T12:49:05.466Z,5.30
2018-12-28T12:51:34.276Z,5.20
2018-12-28T12:54:03.143Z,5.20
2018-12-28T12:56:31.970Z,5.30
2018-12-28T12:59:00.769Z,5.30
2018-12-28T13:01:36.002Z,5.30
2018-12-28T13:04:00.145Z,5.40
2018-12-28T13:06:29.015Z,5.40
2018-12-28T13:08:57.810Z,5.40
2018-12-28T13:11:26.617Z,5.40
2018-12-28T13:13:55.425Z,5.40
2018-12-28T13:16:24.252Z,5.40
2018-12-28T13:18:53.087Z,5.40
2018-12-28T13:21:21.898Z,5.30
2018-12-28T13:23:50.878Z,5.30
2018-12-28T13:26:19.690Z,5.30
2018-12-28T13:28:48.510Z,5.30
2018-12-28T13:31:17.310Z,5.30
2018-12-28T13:33:46.131Z,5.30
2018-12-28T13:36:14.937Z,5.20
2018-12-28T13:38:43.867Z,5.20
2018-12-28T13:41:12.704Z,5.20
2018-12-28T13:43:41.519Z,5.20
2018-12-28T13:46:10.391Z,5.20
2018-12-28T13:48:39.279Z,5.10
2018-12-28T13:51:08.183Z,5.10
2018-12-28T13:53:37.006Z,5.00
2018-12-28T13:56:05.803Z,5.00
2018-12-28T13:58:34.614Z,5.00
2018-12-28T14:01:03.398Z,4.90
2018-12-28T14:03:32.216Z,4.90
2018-12-28T14:06:01.015Z,5.00
2018-12-28T14:08:29.927Z,5.00
2018-12-28T14:10:58.806Z,5.00
2018-12-28T14:13:27.622Z,4.90
2018-12-28T14:15:56.415Z,4.90
2018-12-28T14:18:25.295Z,4.90
2018-12-28T14:20:54.119Z,4.90
2018-12-28T14:23:22.947Z,4.90
2018-12-28T14:25:51.734Z,4.80
2018-12-28T14:28:20.561Z,4.80
2018-12-28T14:30:49.411Z,4.80
2018-12-28T14:33:18.214Z,4.70
2018-12-28T14:35:47.003Z,4.70
2018-12-28T14:38:15.890Z,4.70
2018-12-28T14:40:44.870Z,4.70
2018-12-28T14:43:13.674Z,4.70
2018-12-28T14:45:42.498Z,4.70
2018-12-28T14:48:11.313Z,4.60
2018-12-28T14:50:40.215Z,4.60
2018-12-28T14:53:08.998Z,4.60
2018-12-28T14:55:37.890Z,4.60
2018-12-28T14:58:06.691Z,4.50
2018-12-28T15:00:56.011Z,4.50
2018-12-28T15:03:25.112Z,4.40
2018-12-28T15:05:54.266Z,4.40
2018-12-28T15:08:23.146Z,4.40
2018-12-28T15:10:52.034Z,4.40
2018-12-28T15:13:20.849Z,4.40
2018-12-28T15:15:49.759Z,4.30
2018-12-28T15:18:19.311Z,4.30
2018-12-28T15:20:48.166Z,4.40
2018-12-28T15:23:16.998Z,4.30
2018-12-28T15:25:45.883Z,4.40
2018-12-28T15:28:14.738Z,4.30
2018-12-28T15:30:43.674Z,4.30
2018-12-28T15:33:12.559Z,4.30
2018-12-28T15:35:41.433Z,4.30
2018-12-28T15:38:10.381Z,4.20
2018-12-28T15:40:39.320Z,4.30
2018-12-28T15:43:08.198Z,4.20
2018-12-28T15:45:37.098Z,4.30
2018-12-28T15:48:05.974Z,4.30
2018-12-28T15:50:34.871Z,4.30
2018-12-28T15:53:03.744Z,4.30
2018-12-28T15:55:32.642Z,4.30
2018-12-28T15:58:01.621Z,4.30
2018-12-28T16:00:30.608Z,4.30
2018-12-28T16:02:59.598Z,4.30
2018-12-28T16:05:28.410Z,4.30
2018-12-28T16:07:57.378Z,4.20
2018-12-28T16:10:26.391Z,4.30
2018-12-28T16:12:58.270Z,4.20
2018-12-28T16:15:26.095Z,4.20
2018-12-28T16:17:55.086Z,4.20
2018-12-28T16:20:25.204Z,4.20
2018-12-28T16:22:54.241Z,4.20
2018-12-28T16:25:23.289Z,4.20
2018-12-28T16:27:52.355Z,4.20
2018-12-28T16:30:21.399Z,4.20
2018-12-28T16:32:50.443Z,4.20
2018-12-28T16:35:19.514Z,4.10
2018-12-28T16:37:48.477Z,4.10
2018-12-28T16:40:17.425Z,4.10
2018-12-28T16:42:46.447Z,4.10
2018-12-28T16:45:15.423Z,4.10
2018-12-28T16:47:44.494Z,4.10
2018-12-28T16:50:13.302Z,4.10
2018-12-28T16:52:42.310Z,4.10
2018-12-28T16:55:11.103Z,4.10
2018-12-28T16:57:40.068Z,4.10
2018-12-28T17:00:09.183Z,4.10
2018-12-28T17:02:38.161Z,4.10
2018-12-28T17:05:07.211Z,4.10
2018-12-28T17:07:36.140Z,4.10
2018-12-28T17:10:05.497Z,4.10
2018-12-28T17:12:34.425Z,4.10
2018-12-28T17:15:03.495Z,4.00
2018-12-28T17:17:33.143Z,4.00
2018-12-28T17:20:01.974Z,4.00
2018-12-28T17:22:30.791Z,4.00
2018-12-28T17:24:59.600Z,3.90
2018-12-28T17:27:28.415Z,3.90
2018-12-28T17:29:57.226Z,3.80
2018-12-28T17:32:26.297Z,3.90
2018-12-28T17:34:55.328Z,3.90
2018-12-28T17:37:24.155Z,3.80
2018-12-28T17:39:52.971Z,3.90
2018-12-28T17:42:25.849Z,3.80
2018-12-28T17:44:54.718Z,3.90
2018-12-28T17:47:23.526Z,3.90
2018-12-28T17:49:52.330Z,3.90
2018-12-28T17:52:21.273Z,3.80
2018-12-28T17:54:50.094Z,3.80
2018-12-28T17:57:18.952Z,3.80
2018-12-28T17:59:48.027Z,3.80
2018-12-28T18:02:17.015Z,3.80
2018-12-28T18:04:46.011Z,3.80
2018-12-28T18:07:21.747Z,3.80
2018-12-28T18:09:50.763Z,3.80
2018-12-28T18:12:19.762Z,3.80
2018-12-28T18:14:48.824Z,3.80
2018-12-28T18:17:18.311Z,3.80
2018-12-28T18:19:47.252Z,3.80
2018-12-28T18:22:16.155Z,3.80
2018-12-28T18:24:46.369Z,3.70
2018-12-28T18:27:16.379Z,3.70
2018-12-28T18:29:45.347Z,3.70
2018-12-28T18:32:18.338Z,3.70
2018-12-28T18:34:47.319Z,3.70
2018-12-28T18:37:16.299Z,3.70
2018-12-28T18:39:45.283Z,3.70
2018-12-28T18:42:14.207Z,3.70
2018-12-28T18:44:43.662Z,3.70
2018-12-28T18:47:14.170Z,3.70
2018-12-28T18:49:44.011Z,3.70
2018-12-28T18:52:14.240Z,3.70
2018-12-28T18:54:44.076Z,3.60
2018-12-28T18:57:13.544Z,3.60
2018-12-28T18:59:47.547Z,3.60
2018-12-28T19:02:17.129Z,3.60
2018-12-28T19:04:48.367Z,3.50
2018-12-28T19:07:21.342Z,3.50
2018-12-28T19:09:52.209Z,3.50
2018-12-28T19:12:21.697Z,3.60
2018-12-28T19:14:53.161Z,3.60
2018-12-28T19:17:22.370Z,3.70
2018-12-28T19:19:51.819Z,3.70
2018-12-28T19:22:21.544Z,3.70
2018-12-28T19:24:50.438Z,3.80
2018-12-28T19:27:19.631Z,3.80
2018-12-28T19:29:49.120Z,3.80
2018-12-28T19:32:18.084Z,3.80
2018-12-28T19:34:47.648Z,3.80
2018-12-28T19:37:16.809Z,3.80
2018-12-28T19:39:47.791Z,3.80
2018-12-28T19:42:18.170Z,3.70
2018-12-28T19:44:47.127Z,3.80
2018-12-28T19:47:16.038Z,3.80
2018-12-28T19:49:45.057Z,3.80
2018-12-28T19:52:14.412Z,3.80
2018-12-28T19:54:43.435Z,3.80
2018-12-28T19:57:12.615Z,3.80
2018-12-28T19:59:41.626Z,3.80
2018-12-28T20:02:10.926Z,3.80
2018-12-28T20:04:39.940Z,3.80
2018-12-28T20:07:08.963Z,3.80
2018-12-28T20:09:37.870Z,3.80
2018-12-28T20:12:06.676Z,3.80
2018-12-28T20:14:35.638Z,3.80
2018-12-28T20:17:04.573Z,3.80
2018-12-28T20:19:33.533Z,3.80
2018-12-28T20:22:02.355Z,3.80
2018-12-28T20:24:32.214Z,3.80
2018-12-28T20:27:01.142Z,3.80
2018-12-28T20:29:30.065Z,3.70
2018-12-28T20:31:58.985Z,3.70
2018-12-28T20:34:27.879Z,3.70
2018-12-28T20:36:56.865Z,3.70
2018-12-28T20:39:29.861Z,3.70
2018-12-28T20:41:59.629Z,3.60
2018-12-28T20:44:32.644Z,3.60
2018-12-28T20:47:02.639Z,3.70
2018-12-28T20:49:38.635Z,3.60
2018-12-28T20:52:08.086Z,3.60
2018-12-28T20:54:37.693Z,3.50
2018-12-28T20:57:08.178Z,3.50
2018-12-28T20:59:41.091Z,3.50
2018-12-28T21:02:10.312Z,3.50
2018-12-28T21:04:39.926Z,3.50
2018-12-28T21:07:08.996Z,3.40
2018-12-28T21:09:39.127Z,3.50
2018-12-28T21:12:08.562Z,3.50
2018-12-28T21:14:38.694Z,3.50
2018-12-28T21:17:08.388Z,3.50
2018-12-28T21:19:38.556Z,3.40
2018-12-28T21:22:08.003Z,3.50
2018-12-28T21:24:37.569Z,3.50
2018-12-28T21:27:07.010Z,3.50
2018-12-28T21:29:36.926Z,3.50
2018-12-28T21:32:09.561Z,3.50
2018-12-28T21:34:39.419Z,3.50
2018-12-28T21:37:09.145Z,3.50
2018-12-28T21:39:38.748Z,3.50
2018-12-28T21:42:09.066Z,3.50
2018-12-28T21:44:38.740Z,3.50
2018-12-28T21:47:08.505Z,3.50
2018-12-28T21:49:38.423Z,3.50
2018-12-28T21:52:08.136Z,3.50
2018-12-28T21:54:37.915Z,3.50
2018-12-28T21:57:07.201Z,3.50
2018-12-28T21:59:36.103Z,3.50
2018-12-28T22:02:05.803Z,3.50
2018-12-28T22:04:35.186Z,3.40
2018-12-28T22:07:05.771Z,3.50
2018-12-28T22:09:35.139Z,3.50
2018-12-28T22:12:05.539Z,3.50
2018-12-28T22:14:35.211Z,3.50
2018-12-28T22:17:04.310Z,3.50
2018-12-28T22:19:33.250Z,3.50
2018-12-28T22:22:10.501Z,3.50
2018-12-28T22:24:40.854Z,3.50
2018-12-28T22:27:09.875Z,3.50
2018-12-28T22:29:38.854Z,3.40
2018-12-28T22:32:07.827Z,3.50
2018-12-28T22:34:36.930Z,3.50
2018-12-28T22:37:10.065Z,3.50
2018-12-28T22:39:54.906Z,3.50
2018-12-28T22:42:24.634Z,3.50
2018-12-28T22:44:59.477Z,3.60
2018-12-28T22:47:29.178Z,3.60
2018-12-28T22:49:58.722Z,3.60
2018-12-28T22:52:27.743Z,3.60
2018-12-28T22:54:56.706Z,3.60
2018-12-28T22:57:25.714Z,3.60
2018-12-28T23:00:00.619Z,3.60
2018-12-28T23:02:29.633Z,3.60
2018-12-28T23:04:58.527Z,3.50
2018-12-28T23:07:27.343Z,3.50
2018-12-28T23:09:56.406Z,3.50
2018-12-28T23:12:25.362Z,3.50
2018-12-28T23:14:54.359Z,3.50
2018-12-28T23:17:23.362Z,3.50
2018-12-28T23:19:52.175Z,3.50
2018-12-28T23:22:21.010Z,3.50
2018-12-28T23:24:49.834Z,3.50
2018-12-28T23:27:18.679Z,3.50
2018-12-28T23:29:47.592Z,3.50
2018-12-28T23:32:16.439Z,3.50
2018-12-28T23:34:45.263Z,3.50
2018-12-28T23:37:14.079Z,3.50
2018-12-28T23:39:42.899Z,3.50
2018-12-28T23:42:11.707Z,3.60
2018-12-28T23:44:47.400Z,3.60
2018-12-28T23:47:11.159Z,3.60
2018-12-28T23:49:40.009Z,3.60
2018-12-28T23:52:08.827Z,3.60
2018-12-28T23:54:37.651Z,3.60
2018-12-28T23:57:06.484Z,3.60
2018-12-28T23:59:35.310Z,3.60
